createdAt,value
2022-12-22T00:01:51.566Z,5.20
2022-12-22T00:04:40.778Z,5.20
2022-12-22T00:07:29.729Z,5.20
2022-12-22T00:10:19.047Z,5.30
2022-12-22T00:13:08.365Z,5.30
2022-12-22T00:15:57.537Z,5.30
2022-12-22T00:18:47.038Z,5.20
2022-12-22T00:21:37.786Z,5.20
2022-12-22T00:24:26.801Z,5.20
2022-12-22T00:27:16.282Z,5.20
2022-12-22T00:30:05.868Z,5.30
2022-12-22T00:32:56.655Z,5.40
2022-12-22T00:35:46.195Z,5.40
2022-12-22T00:38:37.095Z,5.40
2022-12-22T00:41:26.745Z,5.50
2022-12-22T00:44:16.944Z,5.50
2022-12-22T00:47:06.607Z,5.50
2022-12-22T00:49:55.772Z,5.50
2022-12-22T00:52:44.712Z,5.50
2022-12-22T00:55:36.028Z,5.50
2022-12-22T00:58:25.504Z,5.40
2022-12-22T01:01:14.500Z,5.40
2022-12-22T01:04:04.113Z,5.40
2022-12-22T01:06:55.187Z,5.50
2022-12-22T01:09:44.212Z,5.50
2022-12-22T01:12:35.920Z,5.50
2022-12-22T01:15:30.243Z,5.50
2022-12-22T01:18:19.131Z,5.50
2022-12-22T01:21:08.633Z,5.50
2022-12-22T01:23:58.994Z,5.60
2022-12-22T01:26:48.410Z,5.60
2022-12-22T01:29:37.665Z,5.60
2022-12-22T01:32:30.697Z,5.60
2022-12-22T01:35:20.149Z,5.60
2022-12-22T01:38:09.152Z,5.70
2022-12-22T01:40:58.348Z,5.70
2022-12-22T01:43:48.242Z,5.70
2022-12-22T01:46:43.700Z,5.60
2022-12-22T01:49:35.998Z,5.60
2022-12-22T01:52:26.755Z,5.70
2022-12-22T01:55:18.277Z,5.70
2022-12-22T01:58:07.983Z,5.70
2022-12-22T02:00:57.167Z,5.70
2022-12-22T02:03:46.469Z,5.70
2022-12-22T02:06:39.965Z,5.70
2022-12-22T02:09:38.216Z,5.70
2022-12-22T02:12:31.489Z,5.80
2022-12-22T02:15:24.029Z,5.80
2022-12-22T02:18:17.931Z,5.80
2022-12-22T02:21:11.604Z,5.90
2022-12-22T02:24:16.443Z,6.00
2022-12-22T02:27:08.145Z,5.90
2022-12-22T02:29:59.614Z,5.80
2022-12-22T02:32:48.851Z,5.80
2022-12-22T02:35:38.060Z,5.80
2022-12-22T02:38:31.110Z,5.80
2022-12-22T02:41:25.070Z,5.70
2022-12-22T02:44:36.329Z,5.70
2022-12-22T02:47:29.153Z,5.70
2022-12-22T02:50:21.550Z,5.70
2022-12-22T02:53:11.075Z,5.70
2022-12-22T02:55:59.976Z,5.80
2022-12-22T02:58:51.550Z,5.80
2022-12-22T03:01:40.926Z,5.80
2022-12-22T03:04:30.530Z,5.90
2022-12-22T03:07:19.479Z,5.90
2022-12-22T03:10:08.354Z,5.90
2022-12-22T03:12:57.464Z,5.90
2022-12-22T03:15:46.504Z,5.90
2022-12-22T03:18:35.756Z,6.00
2022-12-22T03:21:25.095Z,6.00
2022-12-22T03:24:14.458Z,6.00
2022-12-22T03:26:46.529Z,6.00
2022-12-22T03:29:18.131Z,6.00
2022-12-22T03:31:49.595Z,6.00
2022-12-22T03:34:21.100Z,6.10
2022-12-22T03:36:52.750Z,6.00
2022-12-22T03:39:24.368Z,5.90
2022-12-22T03:42:13.396Z,5.90
2022-12-22T03:45:02.478Z,6.00
2022-12-22T03:47:33.972Z,6.00
2022-12-22T03:50:06.204Z,6.00
2022-12-22T03:52:37.616Z,6.00
2022-12-22T03:55:10.088Z,6.00
2022-12-22T03:57:41.604Z,6.00
2022-12-22T04:00:14.364Z,6.10
2022-12-22T04:02:45.934Z,6.20
2022-12-22T04:05:17.743Z,6.20
2022-12-22T04:07:49.725Z,6.20
2022-12-22T04:10:38.789Z,6.40
2022-12-22T04:13:10.158Z,6.40
2022-12-22T04:15:41.672Z,6.40
2022-12-22T04:18:13.244Z,6.50
2022-12-22T04:20:44.582Z,6.50
2022-12-22T04:23:16.057Z,6.50
2022-12-22T04:25:47.405Z,6.40
2022-12-22T04:28:18.856Z,6.20
2022-12-22T04:30:51.902Z,6.10
2022-12-22T04:33:23.559Z,5.90
2022-12-22T04:35:54.951Z,5.80
2022-12-22T04:38:27.361Z,5.80
2022-12-22T04:40:58.821Z,5.70
2022-12-22T04:43:30.154Z,5.60
2022-12-22T04:46:01.680Z,5.50
2022-12-22T04:48:34.871Z,5.40
2022-12-22T04:51:06.971Z,5.30
2022-12-22T04:53:38.577Z,5.30
2022-12-22T04:56:10.949Z,5.20
2022-12-22T04:58:42.412Z,5.20
2022-12-22T05:01:16.484Z,5.30
2022-12-22T05:03:48.064Z,5.40
2022-12-22T05:06:19.540Z,5.50
2022-12-22T05:08:51.053Z,5.70
2022-12-22T05:11:22.561Z,5.70
2022-12-22T05:13:53.961Z,5.70
2022-12-22T05:16:26.275Z,5.60
2022-12-22T05:18:57.733Z,5.60
2022-12-22T05:21:29.164Z,5.60
2022-12-22T05:24:00.668Z,5.60
2022-12-22T05:26:32.109Z,5.50
2022-12-22T05:29:03.522Z,5.40
2022-12-22T05:31:37.726Z,5.30
2022-12-22T05:34:08.868Z,5.20
2022-12-22T05:36:40.641Z,5.10
2022-12-22T05:39:12.181Z,5.10
2022-12-22T05:41:43.656Z,5.10
2022-12-22T05:44:15.037Z,5.10
2022-12-22T05:46:46.485Z,5.10
2022-12-22T05:49:17.889Z,5.20
2022-12-22T05:51:50.074Z,5.10
2022-12-22T05:54:21.473Z,5.10
2022-12-22T05:56:52.974Z,5.20
2022-12-22T05:59:24.378Z,5.20
2022-12-22T06:01:56.003Z,5.30
2022-12-22T06:04:27.845Z,5.30
2022-12-22T06:06:59.428Z,5.20
2022-12-22T06:09:30.876Z,5.30
2022-12-22T06:12:02.302Z,5.30
2022-12-22T06:14:33.714Z,5.30
2022-12-22T06:17:05.296Z,5.20
2022-12-22T06:19:36.809Z,5.20
2022-12-22T06:22:08.244Z,5.10
2022-12-22T06:24:39.576Z,5.10
2022-12-22T06:27:12.416Z,5.10
2022-12-22T06:29:43.879Z,5.10
2022-12-22T06:32:15.378Z,5.20
2022-12-22T06:34:46.952Z,5.20
2022-12-22T06:37:20.485Z,5.20
2022-12-22T06:39:52.195Z,5.30
2022-12-22T06:42:41.285Z,5.30
2022-12-22T06:45:13.364Z,5.30
2022-12-22T06:47:44.782Z,5.30
2022-12-22T06:50:17.124Z,5.20
2022-12-22T06:52:49.413Z,5.20
2022-12-22T06:55:20.844Z,5.10
2022-12-22T06:57:52.488Z,5.20
2022-12-22T07:00:24.967Z,5.10
2022-12-22T07:02:56.572Z,5.10
2022-12-22T07:05:29.877Z,5.10
2022-12-22T07:08:08.066Z,5.10
2022-12-22T07:10:55.398Z,5.10
2022-12-22T07:13:28.200Z,5.20
2022-12-22T07:16:01.683Z,5.20
2022-12-22T07:18:34.535Z,5.30
2022-12-22T07:21:08.539Z,5.30
2022-12-22T07:23:40.648Z,5.40
2022-12-22T07:26:13.446Z,5.30
2022-12-22T07:28:44.937Z,5.40
2022-12-22T07:31:19.368Z,5.30
2022-12-22T07:33:51.346Z,5.50
2022-12-22T07:36:23.120Z,5.50
2022-12-22T07:38:54.990Z,5.60
2022-12-22T07:41:44.176Z,5.70
2022-12-22T07:44:15.530Z,5.70
2022-12-22T07:46:47.090Z,5.80
2022-12-22T07:49:36.367Z,5.80
2022-12-22T07:52:07.932Z,5.80
2022-12-22T07:54:42.134Z,5.80
2022-12-22T07:57:12.711Z,5.80
2022-12-22T07:59:44.007Z,5.90
2022-12-22T08:02:15.814Z,5.90
2022-12-22T08:04:47.299Z,5.90
2022-12-22T08:07:19.145Z,6.00
2022-12-22T08:09:50.472Z,6.00
2022-12-22T08:12:21.985Z,6.10
2022-12-22T08:14:53.340Z,6.10
2022-12-22T08:17:24.828Z,6.10
2022-12-22T08:19:56.166Z,6.20
2022-12-22T08:22:29.219Z,6.20
2022-12-22T08:25:00.670Z,6.20
2022-12-22T08:27:36.410Z,6.20
2022-12-22T08:30:10.579Z,6.20
2022-12-22T08:32:43.570Z,6.30
2022-12-22T08:35:16.040Z,6.30
2022-12-22T08:37:48.869Z,6.30
2022-12-22T08:40:24.660Z,6.40
2022-12-22T08:42:59.367Z,6.40
2022-12-22T08:45:30.841Z,6.40
2022-12-22T08:48:02.764Z,6.30
2022-12-22T08:50:34.094Z,6.30
2022-12-22T08:53:14.600Z,6.20
2022-12-22T08:55:40.041Z,6.20
2022-12-22T08:58:11.420Z,6.20
2022-12-22T09:00:42.878Z,6.10
2022-12-22T09:03:14.478Z,6.20
2022-12-22T09:05:45.943Z,6.20
2022-12-22T09:08:17.274Z,6.20
2022-12-22T09:10:48.904Z,6.20
2022-12-22T09:13:20.221Z,6.20
2022-12-22T09:15:51.719Z,6.20
2022-12-22T09:18:23.108Z,6.20
2022-12-22T09:20:57.528Z,6.20
2022-12-22T09:23:30.590Z,6.30
2022-12-22T09:26:03.489Z,6.50
2022-12-22T09:28:36.021Z,6.60
2022-12-22T09:31:08.115Z,6.70
2022-12-22T09:33:39.436Z,6.70
2022-12-22T09:36:13.480Z,6.70
2022-12-22T09:38:45.019Z,6.80
2022-12-22T09:41:19.780Z,6.90
2022-12-22T09:43:51.279Z,7.10
2022-12-22T09:46:25.642Z,7.20
2022-12-22T09:48:57.204Z,7.20
2022-12-22T09:51:30.031Z,7.40
2022-12-22T09:54:02.816Z,7.60
2022-12-22T09:56:34.220Z,7.70
2022-12-22T09:59:11.388Z,7.80
2022-12-22T10:01:58.947Z,7.80
2022-12-22T10:04:40.724Z,7.80
2022-12-22T10:07:20.099Z,7.80
2022-12-22T10:09:52.147Z,8.00
2022-12-22T10:12:26.234Z,8.10
2022-12-22T10:14:57.553Z,8.30
2022-12-22T10:17:32.426Z,8.50
2022-12-22T10:20:22.064Z,8.70
2022-12-22T10:22:55.588Z,8.80
2022-12-22T10:26:00.428Z,8.90
2022-12-22T10:28:11.924Z,9.00
2022-12-22T10:30:44.100Z,9.10
2022-12-22T10:33:17.899Z,9.00
2022-12-22T10:35:52.706Z,8.90
2022-12-22T10:38:26.670Z,8.90
2022-12-22T10:41:02.604Z,9.10
2022-12-22T10:43:35.363Z,9.70
2022-12-22T10:46:07.315Z,9.70
2022-12-22T10:48:40.622Z,9.80
2022-12-22T10:51:18.585Z,9.90
2022-12-22T10:53:53.668Z,10.10
2022-12-22T10:56:28.022Z,10.60
2022-12-22T10:59:07.248Z,11.00
2022-12-22T11:01:39.261Z,11.40
2022-12-22T11:04:23.265Z,11.90
2022-12-22T11:06:55.897Z,12.20
2022-12-22T11:09:35.642Z,12.60
2022-12-22T11:12:03.878Z,12.80
2022-12-22T11:14:38.420Z,13.10
2022-12-22T11:17:12.949Z,13.20
2022-12-22T11:19:49.983Z,13.30
2022-12-22T11:22:29.527Z,13.40
2022-12-22T11:25:18.576Z,13.50
2022-12-22T11:27:54.144Z,13.60
2022-12-22T11:30:29.390Z,13.70
2022-12-22T11:33:20.495Z,13.80
2022-12-22T11:35:54.221Z,13.80
2022-12-22T11:38:31.237Z,13.90
2022-12-22T11:41:05.997Z,14.00
2022-12-22T11:43:42.534Z,14.10
2022-12-22T11:46:21.493Z,14.00
2022-12-22T11:49:01.343Z,14.00
2022-12-22T11:51:47.477Z,14.00
2022-12-22T11:54:50.802Z,13.90
2022-12-22T11:57:28.631Z,13.70
2022-12-22T12:00:08.833Z,13.50
2022-12-22T12:03:03.247Z,13.40
2022-12-22T12:05:46.826Z,13.20
2022-12-22T12:08:24.742Z,13.20
2022-12-22T12:10:59.576Z,13.10
2022-12-22T12:13:37.639Z,12.90
2022-12-22T12:16:12.400Z,12.80
2022-12-22T12:18:56.769Z,12.70
2022-12-22T12:21:30.315Z,12.70
2022-12-22T12:24:18.392Z,12.70
2022-12-22T12:26:55.952Z,12.60
2022-12-22T12:29:28.849Z,12.60
2022-12-22T12:32:03.419Z,12.60
2022-12-22T12:34:38.051Z,12.60
2022-12-22T12:37:14.227Z,12.50
2022-12-22T12:39:49.056Z,12.40
2022-12-22T12:42:24.817Z,12.40
2022-12-22T12:44:56.399Z,12.30
2022-12-22T12:47:29.286Z,12.20
2022-12-22T12:50:13.235Z,12.00
2022-12-22T12:53:08.358Z,11.90
2022-12-22T12:59:00.996Z,11.70
2022-12-22T13:01:59.686Z,11.60
2022-12-22T13:05:14.755Z,11.60
2022-12-22T13:08:21.227Z,11.70
2022-12-22T13:14:08.207Z,11.80
2022-12-22T13:16:41.782Z,11.90
2022-12-22T13:19:26.387Z,11.90
2022-12-22T13:21:59.138Z,12.00
2022-12-22T13:24:34.370Z,12.00
2022-12-22T13:27:09.075Z,11.90
2022-12-22T13:29:48.220Z,11.90
2022-12-22T13:32:29.480Z,11.90
2022-12-22T13:37:44.074Z,11.70
2022-12-22T13:40:19.503Z,11.70
2022-12-22T13:42:52.936Z,11.70
2022-12-22T13:45:38.036Z,11.70
2022-12-22T13:48:15.651Z,11.70
2022-12-22T13:50:49.785Z,11.70
2022-12-22T13:53:58.585Z,11.70
2022-12-22T13:56:00.117Z,11.80
2022-12-22T13:58:34.198Z,11.80
2022-12-22T14:01:17.030Z,11.80
2022-12-22T14:04:01.019Z,11.70
2022-12-22T14:06:28.056Z,11.70
2022-12-22T14:09:13.381Z,11.70
2022-12-22T14:11:51.652Z,11.60
2022-12-22T14:14:24.464Z,11.60
2022-12-22T14:16:59.483Z,11.40
2022-12-22T14:19:33.966Z,11.40
2022-12-22T14:22:08.966Z,11.20
2022-12-22T14:24:44.277Z,11.20
2022-12-22T14:27:21.479Z,11.10
2022-12-22T14:29:53.182Z,11.00
2022-12-22T14:32:40.046Z,11.00
2022-12-22T14:35:27.876Z,10.90
2022-12-22T14:38:15.303Z,11.00
2022-12-22T14:43:32.914Z,10.90
2022-12-22T14:48:47.432Z,10.60
2022-12-22T14:51:20.594Z,10.40
2022-12-22T14:53:55.564Z,10.30
2022-12-22T14:56:28.370Z,10.20
2022-12-22T14:59:12.928Z,10.10
2022-12-22T15:01:47.969Z,10.00
2022-12-22T15:04:21.442Z,10.00
2022-12-22T15:06:52.907Z,9.90
2022-12-22T15:12:12.290Z,9.90
2022-12-22T15:14:45.829Z,9.80
2022-12-22T15:17:23.103Z,9.80
2022-12-22T15:19:58.633Z,9.80
2022-12-22T15:22:30.216Z,9.80
2022-12-22T15:25:08.674Z,9.70
2022-12-22T15:27:43.135Z,9.60
2022-12-22T15:30:17.475Z,9.60
2022-12-22T15:32:49.707Z,9.60
2022-12-22T15:35:24.639Z,9.50
2022-12-22T15:37:55.962Z,9.40
2022-12-22T15:40:28.985Z,9.30
2022-12-22T15:43:00.459Z,9.30
2022-12-22T15:45:43.330Z,9.30
2022-12-22T15:48:17.828Z,9.30
2022-12-22T15:50:49.644Z,9.20
2022-12-22T15:53:23.392Z,9.20
2022-12-22T15:55:58.371Z,9.20
2022-12-22T15:58:33.958Z,9.30
2022-12-22T16:01:05.477Z,9.30
2022-12-22T16:03:36.859Z,9.40
2022-12-22T16:06:13.923Z,9.40
2022-12-22T16:08:49.789Z,9.30
2022-12-22T16:11:21.717Z,9.20
2022-12-22T16:13:53.922Z,9.00
2022-12-22T16:16:25.453Z,9.00
2022-12-22T16:18:56.769Z,8.90
2022-12-22T16:21:31.147Z,8.90
2022-12-22T16:24:03.972Z,8.90
2022-12-22T16:26:35.420Z,8.90
2022-12-22T16:29:06.757Z,8.90
2022-12-22T16:31:38.215Z,8.90
2022-12-22T16:34:12.175Z,9.00
2022-12-22T16:36:43.674Z,9.00
2022-12-22T16:39:15.098Z,9.00
2022-12-22T16:41:46.717Z,9.00
2022-12-22T16:47:17.909Z,9.00
2022-12-22T16:49:50.851Z,9.00
2022-12-22T16:52:25.353Z,9.10
2022-12-22T16:54:57.376Z,9.10
2022-12-22T16:57:28.970Z,9.10
2022-12-22T17:00:00.526Z,9.20
2022-12-22T17:02:35.233Z,9.20
2022-12-22T17:05:09.249Z,9.10
2022-12-22T17:07:40.638Z,9.10
2022-12-22T17:10:17.049Z,9.10
2022-12-22T17:12:49.478Z,9.10
2022-12-22T17:15:24.303Z,9.10
2022-12-22T17:17:57.775Z,9.10
2022-12-22T17:20:31.302Z,9.10
2022-12-22T17:23:04.624Z,9.00
2022-12-22T17:25:37.044Z,9.00
2022-12-22T17:28:11.437Z,9.00
2022-12-22T17:30:43.616Z,9.00
2022-12-22T17:33:17.461Z,9.00
2022-12-22T17:35:52.227Z,9.00
2022-12-22T17:38:26.333Z,9.00
2022-12-22T17:40:58.092Z,8.90
2022-12-22T17:43:29.611Z,9.00
2022-12-22T17:46:00.996Z,9.00
2022-12-22T17:48:32.572Z,9.10
2022-12-22T17:51:04.034Z,9.10
2022-12-22T17:53:40.774Z,9.10
2022-12-22T17:56:09.821Z,9.10
2022-12-22T17:58:43.069Z,9.10
2022-12-22T18:01:23.130Z,9.00
2022-12-22T18:03:55.003Z,9.00
2022-12-22T18:06:30.005Z,9.00
2022-12-22T18:09:02.424Z,9.00
2022-12-22T18:11:34.173Z,9.00
2022-12-22T18:14:06.223Z,9.10
2022-12-22T18:16:37.579Z,9.10
2022-12-22T18:19:09.044Z,9.10
2022-12-22T18:21:40.371Z,9.10
2022-12-22T18:24:17.104Z,9.10
2022-12-22T18:26:48.760Z,9.10
2022-12-22T18:29:20.474Z,9.10
2022-12-22T18:31:52.725Z,9.10
2022-12-22T18:34:24.229Z,9.10
2022-12-22T18:36:55.612Z,9.00
2022-12-22T18:39:27.116Z,9.00
2022-12-22T18:41:58.677Z,9.00
2022-12-22T18:44:31.971Z,8.90
2022-12-22T18:47:03.935Z,9.00
2022-12-22T18:49:35.761Z,9.00
2022-12-22T18:52:16.065Z,9.00
2022-12-22T18:54:48.320Z,9.00
2022-12-22T18:57:21.160Z,8.90
2022-12-22T18:59:52.677Z,8.90
2022-12-22T19:02:27.491Z,8.90
2022-12-22T19:04:59.593Z,8.90
2022-12-22T19:07:30.990Z,8.90
2022-12-22T19:10:02.415Z,9.00
2022-12-22T19:12:33.804Z,9.00
2022-12-22T19:15:08.635Z,9.00
2022-12-22T19:17:40.049Z,8.90
2022-12-22T19:20:16.703Z,8.90
2022-12-22T19:22:48.889Z,9.00
2022-12-22T19:25:23.769Z,9.20
2022-12-22T19:27:58.203Z,9.40
2022-12-22T19:30:31.252Z,9.50
2022-12-22T19:33:05.381Z,9.50
2022-12-22T19:35:36.981Z,9.50
2022-12-22T19:38:13.845Z,9.50
2022-12-22T19:40:45.286Z,9.50
2022-12-22T19:43:17.079Z,9.50
2022-12-22T19:45:52.202Z,9.50
2022-12-22T19:48:25.745Z,9.50
2022-12-22T19:50:57.545Z,9.50
2022-12-22T19:53:29.043Z,9.40
2022-12-22T19:56:00.467Z,9.30
2022-12-22T19:58:34.821Z,9.30
2022-12-22T20:01:09.121Z,9.10
2022-12-22T20:03:40.686Z,9.10
2022-12-22T20:06:13.091Z,9.00
2022-12-22T20:08:44.964Z,8.80
2022-12-22T20:11:18.930Z,8.70
2022-12-22T20:13:50.498Z,8.70
2022-12-22T20:16:21.944Z,8.60
2022-12-22T20:18:54.325Z,8.60
2022-12-22T20:21:29.531Z,8.70
2022-12-22T20:24:02.258Z,8.80
2022-12-22T20:26:34.478Z,8.80
2022-12-22T20:29:06.044Z,8.90
2022-12-22T20:31:37.467Z,8.90
2022-12-22T20:34:08.943Z,8.90
2022-12-22T20:36:40.956Z,8.90
2022-12-22T20:39:18.031Z,8.90
2022-12-22T20:41:53.537Z,8.90
2022-12-22T20:44:24.228Z,8.80
2022-12-22T20:46:55.649Z,8.70
2022-12-22T20:49:27.046Z,8.70
2022-12-22T20:51:58.434Z,8.60
2022-12-22T20:54:32.705Z,8.50
2022-12-22T20:57:05.064Z,8.40
2022-12-22T20:59:36.606Z,8.40
2022-12-22T21:02:16.813Z,8.40
2022-12-22T21:04:48.454Z,8.40
2022-12-22T21:07:19.779Z,8.50
2022-12-22T21:09:51.199Z,8.50
2022-12-22T21:12:22.556Z,8.60
2022-12-22T21:14:53.957Z,8.60
2022-12-22T21:17:25.396Z,8.50
2022-12-22T21:19:56.919Z,8.50
2022-12-22T21:22:28.366Z,8.40
2022-12-22T21:24:59.793Z,8.40
2022-12-22T21:27:31.207Z,8.40
2022-12-22T21:30:02.693Z,8.30
2022-12-22T21:32:34.042Z,8.30
2022-12-22T21:35:08.332Z,8.20
2022-12-22T21:37:39.401Z,8.30
2022-12-22T21:40:19.165Z,8.20
2022-12-22T21:42:51.551Z,8.20
2022-12-22T21:45:25.721Z,8.10
2022-12-22T21:48:04.767Z,8.10
2022-12-22T21:50:37.414Z,8.00
2022-12-22T21:53:09.254Z,8.00
2022-12-22T21:55:44.126Z,8.00
2022-12-22T21:58:15.899Z,8.00
2022-12-22T22:00:49.712Z,8.00
2022-12-22T22:03:21.120Z,8.00
2022-12-22T22:05:52.606Z,8.00
2022-12-22T22:08:25.119Z,8.00
2022-12-22T22:10:56.582Z,8.00
2022-12-22T22:13:28.219Z,8.00
2022-12-22T22:16:00.042Z,8.00
2022-12-22T22:18:31.595Z,8.00
2022-12-22T22:21:03.060Z,7.90
2022-12-22T22:23:34.503Z,7.90
2022-12-22T22:26:06.969Z,7.90
2022-12-22T22:28:38.407Z,7.90
2022-12-22T22:31:12.485Z,7.90
2022-12-22T22:33:44.067Z,7.90
2022-12-22T22:36:15.541Z,7.80
2022-12-22T22:38:48.687Z,7.90
2022-12-22T22:41:20.149Z,7.90
2022-12-22T22:43:53.130Z,7.90
2022-12-22T22:46:24.541Z,7.90
2022-12-22T22:48:57.950Z,7.90
2022-12-22T22:51:29.448Z,7.90
2022-12-22T22:54:00.825Z,8.00
2022-12-22T22:56:32.440Z,8.00
2022-12-22T22:59:03.934Z,8.00
2022-12-22T23:01:35.352Z,8.00
2022-12-22T23:04:07.246Z,8.00
2022-12-22T23:06:40.480Z,8.10
2022-12-22T23:09:12.438Z,8.00
2022-12-22T23:11:43.870Z,8.00
2022-12-22T23:14:15.276Z,8.00
2022-12-22T23:16:46.795Z,8.00
2022-12-22T23:19:18.763Z,8.00
2022-12-22T23:21:50.289Z,8.00
2022-12-22T23:24:21.783Z,8.00
2022-12-22T23:26:53.153Z,8.00
2022-12-22T23:29:24.578Z,8.00
2022-12-22T23:31:56.094Z,8.00
2022-12-22T23:34:27.706Z,8.00
2022-12-22T23:36:59.531Z,7.90
2022-12-22T23:39:31.001Z,8.00
2022-12-22T23:42:02.447Z,8.00
2022-12-22T23:44:33.822Z,7.90
2022-12-22T23:47:05.433Z,7.90
2022-12-22T23:49:36.816Z,8.00
2022-12-22T23:52:08.345Z,8.00
2022-12-22T23:54:40.000Z,8.00
2022-12-22T23:57:11.432Z,8.00
2022-12-22T23:59:42.989Z,7.90
